createdAt,value
2023-05-10T00:00:49.027Z,100269.84
2023-05-10T00:02:21.383Z,100268.09
2023-05-10T00:03:53.669Z,100263.78
2023-05-10T00:05:25.859Z,100264.63
2023-05-10T00:06:58.085Z,100266.34
2023-05-10T00:08:30.207Z,100264.63
2023-05-10T00:10:02.246Z,100258.59
2023-05-10T00:11:34.384Z,100260.31
2023-05-10T00:13:09.308Z,100258.56
2023-05-10T00:14:41.403Z,100255.13
2023-05-10T00:16:14.477Z,100252.47
2023-05-10T00:17:46.725Z,100256.81
2023-05-10T00:19:19.066Z,100255.06
2023-05-10T00:20:51.364Z,100255.03
2023-05-10T00:22:23.570Z,100262.81
2023-05-10T00:23:56.452Z,100253.28
2023-05-10T00:25:28.659Z,100253.28
2023-05-10T00:27:02.080Z,100250.69
2023-05-10T00:28:34.026Z,100247.16
2023-05-10T00:30:07.703Z,100249.78
2023-05-10T00:31:39.905Z,100250.69
2023-05-10T00:33:12.946Z,100252.44
2023-05-10T00:34:47.745Z,100252.44
2023-05-10T00:36:19.895Z,100242.94
2023-05-10T00:37:51.998Z,100246.41
2023-05-10T00:39:24.099Z,100243.81
2023-05-10T00:40:56.447Z,100246.41
2023-05-10T00:42:28.535Z,100243.78
2023-05-10T00:45:39.283Z,100239.50
2023-05-10T00:47:12.230Z,100242.94
2023-05-10T00:48:45.301Z,100240.31
2023-05-10T00:50:18.097Z,100238.59
2023-05-10T00:51:51.019Z,100239.47
2023-05-10T00:53:23.396Z,100242.00
2023-05-10T00:54:56.115Z,100241.13
2023-05-10T00:56:29.840Z,100240.25
2023-05-10T00:58:02.941Z,100240.25
2023-05-10T00:59:35.517Z,100233.31
2023-05-10T01:01:08.437Z,100241.13
2023-05-10T01:02:40.996Z,100232.47
2023-05-10T01:04:17.170Z,100232.44
2023-05-10T01:05:49.297Z,100251.50
2023-05-10T01:07:21.380Z,100236.81
2023-05-10T01:08:53.420Z,100237.72
2023-05-10T01:10:25.641Z,100236.88
2023-05-10T01:11:58.095Z,100236.00
2023-05-10T01:13:34.860Z,100235.97
2023-05-10T01:15:08.620Z,100241.16
2023-05-10T01:16:42.204Z,100241.16
2023-05-10T01:19:46.048Z,100233.50
2023-05-10T01:21:44.908Z,100228.25
2023-05-10T01:23:44.506Z,100238.66
2023-05-10T01:25:44.506Z,100229.25
2023-05-10T01:27:25.864Z,100230.22
2023-05-10T01:29:20.024Z,100237.91
2023-05-10T01:31:28.616Z,100229.31
2023-05-10T01:33:19.776Z,100231.97
2023-05-10T01:34:58.719Z,100229.41
2023-05-10T01:36:52.795Z,100229.41
2023-05-10T01:38:44.943Z,100226.81
2023-05-10T01:40:52.858Z,100228.56
2023-05-10T01:42:27.710Z,100225.09
2023-05-10T01:44:25.092Z,100218.19
2023-05-10T01:46:06.102Z,100218.13
2023-05-10T01:49:14.743Z,100210.41
2023-05-10T01:50:48.084Z,100215.56
2023-05-10T01:52:22.274Z,100210.31
2023-05-10T01:54:02.132Z,100213.75
2023-05-10T01:55:37.011Z,100212.06
2023-05-10T01:57:10.477Z,100215.44
2023-05-10T01:58:43.639Z,100217.09
2023-05-10T02:00:16.481Z,100216.25
2023-05-10T02:01:49.330Z,100215.44
2023-05-10T02:03:26.125Z,100219.75
2023-05-10T02:04:58.813Z,100222.34
2023-05-10T02:06:32.057Z,100214.66
2023-05-10T02:08:10.463Z,100217.25
2023-05-10T02:09:44.672Z,100217.28
2023-05-10T02:11:17.083Z,100222.47
2023-05-10T02:12:49.759Z,100222.53
2023-05-10T02:14:22.660Z,100214.72
2023-05-10T02:15:55.125Z,100225.09
2023-05-10T02:17:27.817Z,100221.63
2023-05-10T02:19:00.903Z,100222.47
2023-05-10T02:20:33.345Z,100224.22
2023-05-10T02:23:42.284Z,100214.00
2023-05-10T02:25:14.970Z,100214.78
2023-05-10T02:26:49.067Z,100221.63
2023-05-10T02:28:22.829Z,100221.63
2023-05-10T02:29:56.031Z,100220.75
2023-05-10T02:31:28.241Z,100220.78
2023-05-10T02:33:01.347Z,100217.25
2023-05-10T02:34:33.957Z,100212.97
2023-05-10T02:36:07.182Z,100216.41
2023-05-10T02:37:40.293Z,100213.84
2023-05-10T02:39:14.876Z,100213.00
2023-05-10T02:40:47.896Z,100210.41
2023-05-10T02:42:21.591Z,100212.16
2023-05-10T02:43:57.678Z,100217.34
2023-05-10T02:45:32.015Z,100206.13
2023-05-10T02:47:05.433Z,100206.16
2023-05-10T02:48:37.303Z,100203.47
2023-05-10T02:50:10.026Z,100202.69
2023-05-10T02:51:54.077Z,100200.03
2023-05-10T02:53:33.214Z,100206.03
2023-05-10T02:55:07.010Z,100199.19
2023-05-10T02:56:44.309Z,100201.72
2023-05-10T02:58:16.469Z,100192.34
2023-05-10T02:59:48.688Z,100197.53
2023-05-10T03:01:20.883Z,100197.59
2023-05-10T03:02:53.443Z,100195.88
2023-05-10T03:04:25.579Z,100197.69
2023-05-10T03:05:58.077Z,100199.50
2023-05-10T03:09:03.842Z,100196.06
2023-05-10T03:10:42.260Z,100192.63
2023-05-10T03:12:24.610Z,100196.06
2023-05-10T03:14:04.907Z,100202.09
2023-05-10T03:15:55.485Z,100205.50
2023-05-10T03:17:32.690Z,100194.19
2023-05-10T03:19:19.706Z,100199.31
2023-05-10T03:20:53.076Z,100201.91
2023-05-10T03:22:26.726Z,100200.16
2023-05-10T03:24:07.784Z,100198.47
2023-05-10T03:25:42.336Z,100203.72
2023-05-10T03:27:16.064Z,100202.88
2023-05-10T03:28:49.691Z,100208.94
2023-05-10T03:30:22.092Z,100206.44
2023-05-10T03:31:54.226Z,100209.88
2023-05-10T03:33:26.426Z,100207.34
2023-05-10T03:34:58.534Z,100211.63
2023-05-10T03:36:33.458Z,100203.84
2023-05-10T03:38:05.838Z,100203.84
2023-05-10T03:39:38.130Z,100209.91
2023-05-10T03:41:10.287Z,100205.59
2023-05-10T03:44:14.315Z,100217.66
2023-05-10T03:45:46.488Z,100209.00
2023-05-10T03:47:18.593Z,100212.38
2023-05-10T03:48:50.701Z,100210.69
2023-05-10T03:50:22.987Z,100204.66
2023-05-10T03:51:56.190Z,100219.22
2023-05-10T03:53:28.439Z,100214.97
2023-05-10T03:55:00.554Z,100214.94
2023-05-10T03:56:32.874Z,100209.75
2023-05-10T03:58:04.966Z,100210.63
2023-05-10T03:59:37.311Z,100208.06
2023-05-10T04:01:09.458Z,100213.22
2023-05-10T04:02:41.833Z,100211.50
2023-05-10T04:04:14.039Z,100214.09
2023-05-10T04:05:46.330Z,100212.38
2023-05-10T04:07:19.442Z,100222.72
2023-05-10T04:08:51.635Z,100213.28
2023-05-10T04:10:23.699Z,100223.66
2023-05-10T04:11:55.882Z,100218.47
2023-05-10T04:13:28.127Z,100224.56
2023-05-10T04:15:00.389Z,100221.97
2023-05-10T04:16:32.552Z,100226.25
2023-05-10T04:18:06.511Z,100217.56
2023-05-10T04:19:40.139Z,100211.50
2023-05-10T04:21:15.513Z,100212.34
2023-05-10T04:22:47.705Z,100218.38
2023-05-10T04:24:19.905Z,100214.00
2023-05-10T04:25:52.035Z,100221.78
2023-05-10T04:27:24.262Z,100223.47
2023-05-10T04:28:56.439Z,100219.19
2023-05-10T04:30:31.279Z,100225.22
2023-05-10T04:32:03.577Z,100222.59
2023-05-10T04:33:36.955Z,100220.88
2023-05-10T04:35:09.191Z,100219.03
2023-05-10T04:36:41.326Z,100218.28
2023-05-10T04:38:13.539Z,100217.38
2023-05-10T04:39:45.989Z,100219.09
2023-05-10T04:41:18.230Z,100219.91
2023-05-10T04:42:50.431Z,100214.72
2023-05-10T04:44:22.625Z,100222.47
2023-05-10T04:45:58.338Z,100220.00
2023-05-10T04:47:30.457Z,100219.22
2023-05-10T04:49:02.633Z,100222.66
2023-05-10T04:50:34.921Z,100223.47
2023-05-10T04:52:07.090Z,100221.72
2023-05-10T04:53:39.574Z,100227.66
2023-05-10T04:55:11.843Z,100220.69
2023-05-10T04:56:46.749Z,100224.00
2023-05-10T04:58:18.913Z,100213.66
2023-05-10T04:59:51.097Z,100215.38
2023-05-10T05:01:24.509Z,100230.84
2023-05-10T05:02:56.771Z,100219.59
2023-05-10T05:04:29.068Z,100217.84
2023-05-10T05:06:01.379Z,100212.69
2023-05-10T05:07:33.815Z,100217.00
2023-05-10T05:09:05.998Z,100222.25
2023-05-10T05:10:38.203Z,100225.88
2023-05-10T05:12:11.312Z,100219.00
2023-05-10T05:13:43.469Z,100216.41
2023-05-10T05:15:16.773Z,100223.31
2023-05-10T05:16:48.922Z,100230.16
2023-05-10T05:18:21.071Z,100229.28
2023-05-10T05:19:53.255Z,100226.63
2023-05-10T05:21:26.519Z,100224.88
2023-05-10T05:22:58.612Z,100225.69
2023-05-10T05:24:30.686Z,100222.38
2023-05-10T05:26:02.876Z,100224.88
2023-05-10T05:29:17.253Z,100217.09
2023-05-10T05:30:49.559Z,100236.88
2023-05-10T05:32:21.898Z,100233.38
2023-05-10T05:33:54.133Z,100226.50
2023-05-10T05:35:26.376Z,100225.50
2023-05-10T05:36:58.574Z,100230.66
2023-05-10T05:38:30.730Z,100234.94
2023-05-10T05:40:03.200Z,100232.22
2023-05-10T05:41:35.401Z,100231.25
2023-05-10T05:43:07.595Z,100232.03
2023-05-10T05:44:39.949Z,100229.34
2023-05-10T05:46:12.148Z,100232.88
2023-05-10T05:47:44.362Z,100234.63
2023-05-10T05:49:16.541Z,100233.69
2023-05-10T05:50:51.547Z,100231.09
2023-05-10T05:52:24.386Z,100232.81
2023-05-10T05:53:56.995Z,100236.22
2023-05-10T05:55:29.212Z,100238.72
2023-05-10T05:57:02.291Z,100238.72
2023-05-10T05:58:34.477Z,100239.50
2023-05-10T06:00:07.440Z,100229.97
2023-05-10T06:03:18.553Z,100236.75
2023-05-10T06:04:50.949Z,100232.44
2023-05-10T06:06:23.080Z,100248.88
2023-05-10T06:07:55.251Z,100236.00
2023-05-10T06:09:27.415Z,100245.41
2023-05-10T06:10:59.529Z,100246.16
2023-05-10T06:12:31.792Z,100251.31
2023-05-10T06:14:09.281Z,100246.91
2023-05-10T06:15:44.098Z,100245.13
2023-05-10T06:17:16.220Z,100251.16
2023-05-10T06:18:48.418Z,100252.78
2023-05-10T06:20:20.558Z,100261.41
2023-05-10T06:21:53.837Z,100247.50
2023-05-10T06:23:26.859Z,100254.31
2023-05-10T06:24:59.016Z,100250.06
2023-05-10T06:26:31.437Z,100255.19
2023-05-10T06:28:03.680Z,100249.97
2023-05-10T06:29:35.784Z,100250.75
2023-05-10T06:31:08.246Z,100250.75
2023-05-10T06:32:40.513Z,100255.91
2023-05-10T06:34:13.153Z,100258.50
2023-05-10T06:35:45.357Z,100255.00
2023-05-10T06:37:17.516Z,100255.03
2023-05-10T06:38:49.955Z,100257.56
2023-05-10T06:40:22.180Z,100254.94
2023-05-10T06:41:54.625Z,100248.06
2023-05-10T06:43:27.647Z,100267.00
2023-05-10T06:44:59.754Z,100260.94
2023-05-10T06:46:32.001Z,100264.41
2023-05-10T06:48:04.427Z,100265.31
2023-05-10T06:49:36.887Z,100260.97
2023-05-10T06:51:08.981Z,100258.38
2023-05-10T06:52:41.512Z,100257.44
2023-05-10T06:54:13.794Z,100262.59
2023-05-10T06:55:45.990Z,100259.03
2023-05-10T06:57:30.521Z,100256.34
2023-05-10T06:59:04.387Z,100262.31
2023-05-10T07:02:08.473Z,100246.06
2023-05-10T07:03:40.706Z,100256.25
2023-05-10T07:05:13.753Z,100260.59
2023-05-10T07:06:47.752Z,100262.25
2023-05-10T07:08:20.095Z,100263.06
2023-05-10T07:09:52.652Z,100262.06
2023-05-10T07:11:25.178Z,100262.88
2023-05-10T07:12:57.371Z,100255.06
2023-05-10T07:14:29.609Z,100253.34
2023-05-10T07:16:03.379Z,100255.88
2023-05-10T07:17:35.770Z,100258.38
2023-05-10T07:19:08.233Z,100252.28
2023-05-10T07:20:40.320Z,100253.03
2023-05-10T07:22:12.932Z,100259.88
2023-05-10T07:23:45.305Z,100258.94
2023-05-10T07:25:17.829Z,100258.91
2023-05-10T07:26:50.165Z,100257.13
2023-05-10T07:28:22.466Z,100251.06
2023-05-10T07:29:54.642Z,100260.56
2023-05-10T07:31:26.769Z,100265.66
2023-05-10T07:32:59.102Z,100269.88
2023-05-10T08:16:41.534Z,100273.78
2023-05-10T08:18:13.776Z,100275.50
2023-05-10T08:19:46.082Z,100277.97
2023-05-10T08:21:18.256Z,100274.38
2023-05-10T08:22:52.023Z,100278.66
2023-05-10T08:24:24.381Z,100275.06
2023-05-10T08:25:56.491Z,100279.34
2023-05-10T08:27:28.647Z,100277.47
2023-05-10T08:29:00.791Z,100283.50
2023-05-10T08:30:33.006Z,100284.41
2023-05-10T08:32:05.303Z,100290.34
2023-05-10T08:33:37.560Z,100283.34
2023-05-10T08:35:09.847Z,100278.84
2023-05-10T08:36:41.981Z,100277.34
2023-05-10T08:38:14.325Z,100277.06
2023-05-10T08:39:49.310Z,100285.72
2023-05-10T08:41:22.670Z,100286.53
2023-05-10T08:43:04.975Z,100285.63
2023-05-10T08:44:38.268Z,100291.84
2023-05-10T08:46:10.297Z,100280.38
2023-05-10T08:47:42.787Z,100274.47
2023-05-10T08:49:19.959Z,100278.63
2023-05-10T08:50:54.678Z,100288.25
2023-05-10T08:52:28.149Z,100276.03
2023-05-10T08:54:00.980Z,100271.63
2023-05-10T08:55:34.972Z,100271.47
2023-05-10T08:57:07.436Z,100276.59
2023-05-10T08:58:40.182Z,100279.16
2023-05-10T09:00:13.171Z,100272.16
2023-05-10T09:01:47.123Z,100262.47
2023-05-10T09:03:19.596Z,100268.50
2023-05-10T09:04:51.751Z,100268.38
2023-05-10T09:06:24.717Z,100264.81
2023-05-10T09:07:57.187Z,100261.28
2023-05-10T09:09:29.657Z,100255.91
2023-05-10T09:11:02.898Z,100253.16
2023-05-10T09:12:35.062Z,100258.22
2023-05-10T09:14:07.235Z,100252.84
2023-05-10T09:15:40.011Z,100249.28
2023-05-10T09:17:12.296Z,100254.28
2023-05-10T09:18:44.507Z,100254.06
2023-05-10T09:20:18.785Z,100259.19
2023-05-10T09:21:51.161Z,100253.81
2023-05-10T09:23:23.571Z,100254.56
2023-05-10T09:25:17.817Z,100256.16
2023-05-10T09:26:50.521Z,100248.28
2023-05-10T09:28:22.705Z,100257.75
2023-05-10T09:29:56.467Z,100250.63
2023-05-10T09:31:48.620Z,100248.44
2023-05-10T09:33:21.123Z,100246.88
2023-05-10T09:34:53.209Z,100245.03
2023-05-10T09:36:25.454Z,100245.75
2023-05-10T09:38:00.536Z,100251.63
2023-05-10T09:39:37.138Z,100249.00
2023-05-10T09:41:18.404Z,100257.84
2023-05-10T09:42:59.788Z,100256.03
2023-05-10T09:44:34.032Z,100249.94
2023-05-10T09:46:11.001Z,100243.63
2023-05-10T09:47:43.157Z,100234.13
2023-05-10T09:49:16.185Z,100240.81
2023-05-10T09:50:58.748Z,100243.28
2023-05-10T09:52:50.620Z,100246.47
2023-05-10T09:54:25.248Z,100235.28
2023-05-10T09:55:57.565Z,100235.28
2023-05-10T09:57:29.648Z,100238.63
2023-05-10T09:59:05.182Z,100235.06
2023-05-10T10:00:38.913Z,100235.06
2023-05-10T10:02:11.463Z,100233.25
2023-05-10T10:03:44.761Z,100238.34
2023-05-10T10:05:16.947Z,100233.03
2023-05-10T10:07:00.293Z,100239.16
2023-05-10T10:08:32.483Z,100239.22
2023-05-10T10:10:06.183Z,100239.97
2023-05-10T10:11:39.857Z,100233.69
2023-05-10T10:13:12.283Z,100231.88
2023-05-10T10:14:44.987Z,100229.91
2023-05-10T10:16:17.351Z,100230.47
2023-05-10T10:17:50.370Z,100231.16
2023-05-10T10:19:22.867Z,100230.25
2023-05-10T10:20:55.898Z,100226.50
2023-05-10T10:22:28.102Z,100220.38
2023-05-10T10:24:00.293Z,100218.59
2023-05-10T10:25:32.713Z,100215.94
2023-05-10T10:27:20.486Z,100213.19
2023-05-10T10:29:26.496Z,100212.41
2023-05-10T10:31:03.565Z,100210.19
2023-05-10T10:33:20.183Z,100210.16
2023-05-10T10:34:59.452Z,100215.47
2023-05-10T10:36:31.878Z,100202.31
2023-05-10T10:38:04.059Z,100204.75
2023-05-10T10:39:38.082Z,100203.66
2023-05-10T10:41:29.368Z,100193.97
2023-05-10T10:43:24.495Z,100201.63
2023-05-10T10:45:13.943Z,100193.59
2023-05-10T10:47:07.687Z,100194.34
2023-05-10T10:48:39.964Z,100195.41
2023-05-10T10:50:14.248Z,100198.78
2023-05-10T10:52:18.145Z,100193.19
2023-05-10T10:53:50.599Z,100186.19
2023-05-10T10:55:25.056Z,100186.91
2023-05-10T10:57:16.214Z,100178.59
2023-05-10T10:58:53.957Z,100184.44
2023-05-10T11:00:38.003Z,100178.91
2023-05-10T11:02:10.374Z,100178.06
2023-05-10T11:04:03.233Z,100181.47
2023-05-10T11:05:52.571Z,100178.50
2023-05-10T11:07:24.684Z,100183.75
2023-05-10T11:08:56.740Z,100181.09
2023-05-10T11:10:30.147Z,100174.16
2023-05-10T11:12:09.980Z,100182.56
2023-05-10T11:13:49.160Z,100186.81
2023-05-10T11:15:31.305Z,100177.81
2023-05-10T11:17:03.499Z,100174.38
2023-05-10T11:18:38.149Z,100173.31
2023-05-10T11:20:16.316Z,100169.75
2023-05-10T11:21:55.421Z,100168.84
2023-05-10T11:23:34.949Z,100175.72
2023-05-10T11:25:07.755Z,100163.66
2023-05-10T11:26:39.949Z,100154.97
2023-05-10T11:29:46.913Z,100149.03
2023-05-10T11:31:19.495Z,100154.78
2023-05-10T11:32:51.722Z,100153.00
2023-05-10T11:34:28.011Z,100151.59
2023-05-10T11:36:00.272Z,100150.06
2023-05-10T11:37:35.680Z,100149.88
2023-05-10T11:39:07.831Z,100153.06
2023-05-10T11:40:41.232Z,100143.13
2023-05-10T11:42:13.822Z,100149.03
2023-05-10T11:43:49.047Z,100144.56
2023-05-10T11:45:21.271Z,100146.78
2023-05-10T11:46:53.527Z,100151.59
2023-05-10T11:48:25.797Z,100149.59
2023-05-10T11:49:58.775Z,100147.91
2023-05-10T11:51:31.528Z,100142.16
2023-05-10T11:53:03.670Z,100156.88
2023-05-10T11:54:36.512Z,100150.75
2023-05-10T11:56:10.576Z,100149.69
2023-05-10T11:57:43.961Z,100149.53
2023-05-10T11:59:16.252Z,100146.66
2023-05-10T12:00:48.813Z,100157.41
2023-05-10T12:02:20.982Z,100150.44
2023-05-10T12:03:54.847Z,100143.72
2023-05-10T12:05:27.233Z,100144.50
2023-05-10T12:06:59.554Z,100142.59
2023-05-10T12:08:32.277Z,100148.50
2023-05-10T12:10:16.166Z,100128.38
2023-05-10T12:11:48.606Z,100137.19
2023-05-10T12:13:21.982Z,100137.97
2023-05-10T12:14:54.115Z,100135.47
2023-05-10T12:16:28.429Z,100143.25
2023-05-10T12:18:01.274Z,100145.16
2023-05-10T12:19:40.289Z,100142.53
2023-05-10T12:21:16.699Z,100139.47
2023-05-10T12:22:53.156Z,100137.56
2023-05-10T12:24:26.779Z,100141.94
2023-05-10T12:26:05.593Z,100135.81
2023-05-10T12:27:37.922Z,100126.03
2023-05-10T12:29:20.793Z,100130.16
2023-05-10T12:30:54.843Z,100132.91
2023-05-10T12:32:53.706Z,100125.97
2023-05-10T12:34:32.848Z,100129.50
2023-05-10T12:36:05.239Z,100124.66
2023-05-10T12:37:40.333Z,100128.47
2023-05-10T12:39:13.067Z,100117.88
2023-05-10T12:40:45.188Z,100124.81
2023-05-10T12:42:18.067Z,100109.69
2023-05-10T12:43:50.236Z,100107.00
2023-05-10T12:45:22.419Z,100110.53
2023-05-10T12:46:54.476Z,100110.41
2023-05-10T12:48:26.581Z,100102.41
2023-05-10T12:49:58.813Z,100099.72
2023-05-10T12:51:32.168Z,100102.34
2023-05-10T12:53:04.157Z,100091.66
2023-05-10T12:54:39.246Z,100090.72
2023-05-10T12:56:11.386Z,100093.28
2023-05-10T12:57:43.443Z,100093.34
2023-05-10T12:59:15.683Z,100086.38
2023-05-10T13:00:48.074Z,100091.59
2023-05-10T13:02:20.676Z,100081.81
2023-05-10T13:03:53.006Z,100082.59
2023-05-10T13:05:25.083Z,100074.16
2023-05-10T13:07:00.168Z,100076.56
2023-05-10T13:08:34.864Z,100074.84
2023-05-10T13:10:08.047Z,100064.16
2023-05-10T13:11:40.228Z,100068.44
2023-05-10T13:13:12.424Z,100065.72
2023-05-10T13:14:44.618Z,100065.56
2023-05-10T13:16:16.784Z,100063.66
2023-05-10T13:17:49.344Z,100065.28
2023-05-10T13:19:21.689Z,100060.97
2023-05-10T13:20:55.358Z,100059.03
2023-05-10T13:22:39.265Z,100058.97
2023-05-10T13:24:15.171Z,100060.53
2023-05-10T13:25:47.388Z,100056.22
2023-05-10T13:27:19.621Z,100050.06
2023-05-10T13:28:53.052Z,100055.28
2023-05-10T13:30:25.486Z,100050.84
2023-05-10T13:31:57.792Z,100055.44
2023-05-10T13:33:29.921Z,100050.41
2023-05-10T13:35:02.184Z,100047.09
2023-05-10T13:36:34.335Z,100048.00
2023-05-10T13:38:09.263Z,100044.59
2023-05-10T13:39:41.462Z,100048.38
2023-05-10T13:41:13.690Z,100040.69
2023-05-10T13:42:45.935Z,100045.88
2023-05-10T13:44:18.090Z,100038.84
2023-05-10T13:45:50.243Z,100036.22
2023-05-10T13:47:23.089Z,100039.84
2023-05-10T13:48:55.651Z,100038.06
2023-05-10T13:50:28.372Z,100040.69
2023-05-10T13:52:00.576Z,100037.28
2023-05-10T13:53:32.739Z,100038.06
2023-05-10T13:55:05.308Z,100035.44
2023-05-10T13:56:42.236Z,100033.56
2023-05-10T13:58:14.528Z,100036.50
2023-05-10T13:59:46.832Z,100033.25
2023-05-10T14:01:19.018Z,100028.75
2023-05-10T14:02:51.292Z,100035.81
2023-05-10T14:04:23.477Z,100031.47
2023-05-10T14:05:55.616Z,100041.06
2023-05-10T14:07:27.797Z,100034.09
2023-05-10T14:09:00.068Z,100032.41
2023-05-10T14:10:32.222Z,100039.50
2023-05-10T14:12:04.433Z,100031.63
2023-05-10T14:13:36.905Z,100032.53
2023-05-10T14:15:09.577Z,100034.31
2023-05-10T14:16:45.635Z,100040.56
2023-05-10T14:18:17.809Z,100034.47
2023-05-10T14:19:49.993Z,100032.91
2023-05-10T14:21:22.127Z,100030.19
2023-05-10T14:22:54.239Z,100031.91
2023-05-10T14:24:26.392Z,100027.66
2023-05-10T14:25:58.787Z,100037.47
2023-05-10T14:27:31.680Z,100038.31
2023-05-10T14:29:03.804Z,100031.41
2023-05-10T14:30:35.930Z,100042.66
2023-05-10T14:32:08.437Z,100039.19
2023-05-10T14:33:40.594Z,100040.03
2023-05-10T14:35:16.038Z,100044.28
2023-05-10T14:36:49.896Z,100040.75
2023-05-10T14:38:22.042Z,100040.94
2023-05-10T14:39:54.101Z,100043.66
2023-05-10T14:41:26.352Z,100034.91
2023-05-10T14:42:58.467Z,100037.47
2023-05-10T14:44:30.745Z,100038.31
2023-05-10T14:46:02.989Z,100036.56
2023-05-10T14:47:35.356Z,100035.59
2023-05-10T14:49:07.848Z,100036.47
2023-05-10T14:50:41.025Z,100038.31
2023-05-10T14:53:09.233Z,100026.66
2023-05-10T14:54:41.808Z,100031.25
2023-05-10T14:56:13.992Z,100039.19
2023-05-10T14:57:47.884Z,100039.88
2023-05-10T14:59:20.017Z,100028.50
2023-05-10T15:00:52.862Z,100039.75
2023-05-10T15:02:25.663Z,100027.84
2023-05-10T15:03:58.288Z,100033.03
2023-05-10T15:05:30.840Z,100034.66
2023-05-10T15:07:03.761Z,100040.66
2023-05-10T15:08:35.961Z,100036.38
2023-05-10T15:10:08.778Z,100027.56
2023-05-10T15:11:40.993Z,100022.44
2023-05-10T15:13:13.210Z,100026.72
2023-05-10T15:14:45.654Z,100024.13
2023-05-10T15:16:17.840Z,100025.88
2023-05-10T15:17:49.988Z,100028.78
2023-05-10T15:19:22.340Z,100021.91
2023-05-10T15:20:54.493Z,100029.78
2023-05-10T15:22:27.059Z,100030.56
2023-05-10T15:23:59.189Z,100027.94
2023-05-10T15:25:32.328Z,100030.69
2023-05-10T15:27:04.587Z,100028.91
2023-05-10T15:28:36.767Z,100030.69
2023-05-10T15:30:09.660Z,100030.69
2023-05-10T15:31:41.774Z,100029.91
2023-05-10T15:33:16.239Z,100021.03
2023-05-10T15:34:48.624Z,100023.03
2023-05-10T15:36:21.031Z,100022.19
2023-05-10T15:37:53.075Z,100020.47
2023-05-10T15:39:25.180Z,100021.41
2023-05-10T15:40:59.135Z,100018.84
2023-05-10T15:42:32.020Z,100018.00
2023-05-10T15:44:04.309Z,100014.50
2023-05-10T15:47:08.330Z,100007.78
2023-05-10T15:48:40.720Z,100012.06
2023-05-10T15:50:13.275Z,100006.00
2023-05-10T15:51:45.512Z,100003.44
2023-05-10T15:53:17.801Z,100000.03
2023-05-10T15:54:50.650Z,99996.50
2023-05-10T15:56:23.549Z,99991.41
2023-05-10T15:57:55.779Z,99989.72
2023-05-10T15:59:27.904Z,99999.41
2023-05-10T16:01:00.289Z,99988.16
2023-05-10T16:02:32.546Z,99987.56
2023-05-10T16:04:05.107Z,99998.94
2023-05-10T16:05:37.214Z,99990.34
2023-05-10T16:07:09.313Z,99995.75
2023-05-10T16:08:41.628Z,99994.91
2023-05-10T16:10:13.853Z,99988.16
2023-05-10T16:11:45.944Z,99992.53
2023-05-10T16:13:18.132Z,99997.84
2023-05-10T16:16:36.328Z,99991.03
2023-05-10T16:18:08.499Z,99994.69
2023-05-10T16:19:41.456Z,99985.31
2023-05-10T16:21:13.617Z,99999.97
2023-05-10T16:22:45.829Z,99989.72
2023-05-10T16:24:18.065Z,100002.75
2023-05-10T16:25:50.410Z,99999.34
2023-05-10T16:27:22.553Z,100005.41
2023-05-10T16:28:54.977Z,100003.72
2023-05-10T16:30:29.671Z,99999.34
2023-05-10T16:32:02.140Z,100004.78
2023-05-10T16:33:34.248Z,100000.50
2023-05-10T16:35:07.017Z,100003.19
2023-05-10T16:36:39.138Z,100001.66
2023-05-10T16:38:14.641Z,100000.94
2023-05-10T16:39:46.893Z,99998.31
2023-05-10T16:41:19.391Z,100003.69
2023-05-10T16:42:51.761Z,99999.38
2023-05-10T16:46:11.009Z,100002.13
2023-05-10T16:47:43.685Z,100012.69
2023-05-10T16:49:16.051Z,100005.88
2023-05-10T16:50:48.673Z,100010.31
2023-05-10T16:52:20.832Z,100013.91
2023-05-10T16:53:53.898Z,100011.34
2023-05-10T16:55:26.537Z,100011.50
2023-05-10T16:56:59.019Z,100011.53
2023-05-10T16:58:31.141Z,100024.63
2023-05-10T17:00:04.602Z,100018.53
2023-05-10T17:01:36.736Z,100015.94
2023-05-10T17:03:09.177Z,100024.75
2023-05-10T17:04:43.045Z,100017.81
2023-05-10T17:06:15.278Z,100017.84
2023-05-10T17:07:47.487Z,100014.44
2023-05-10T17:09:20.668Z,100019.69
2023-05-10T17:10:52.764Z,100024.00
2023-05-10T17:12:24.897Z,100025.78
2023-05-10T17:13:57.098Z,100018.00
2023-05-10T17:15:29.500Z,100028.50
2023-05-10T17:17:01.721Z,100025.97
2023-05-10T17:18:34.203Z,100029.59
2023-05-10T17:21:46.162Z,100025.50
2023-05-10T17:23:20.315Z,100023.66
2023-05-10T17:24:52.460Z,100028.34
2023-05-10T17:26:24.612Z,100024.31
2023-05-10T17:27:56.726Z,100025.41
2023-05-10T17:29:29.531Z,100027.44
2023-05-10T17:31:02.663Z,100023.25
2023-05-10T17:32:34.828Z,100030.28
2023-05-10T17:34:07.130Z,100032.09
2023-05-10T17:35:39.529Z,100036.53
2023-05-10T17:37:11.647Z,100032.22
2023-05-10T17:38:43.886Z,100032.22
2023-05-10T17:40:16.405Z,100034.94
2023-05-10T17:41:48.632Z,100038.53
2023-05-10T17:43:21.304Z,100037.78
2023-05-10T17:44:53.470Z,100036.31
2023-05-10T17:46:25.703Z,100045.06
2023-05-10T17:47:58.001Z,100039.94
2023-05-10T17:49:30.167Z,100042.59
2023-05-10T17:51:02.441Z,100046.22
2023-05-10T17:52:34.583Z,100049.91
2023-05-10T17:55:42.594Z,100041.13
2023-05-10T17:57:15.424Z,100050.72
2023-05-10T17:58:47.622Z,100043.69
2023-05-10T18:00:19.871Z,100047.09
2023-05-10T18:01:51.992Z,100052.31
2023-05-10T18:03:24.431Z,100056.59
2023-05-10T18:04:58.327Z,100053.25
2023-05-10T18:06:32.873Z,100061.16
2023-05-10T18:08:06.023Z,100058.69
2023-05-10T18:09:38.581Z,100057.16
2023-05-10T18:11:10.697Z,100063.28
2023-05-10T18:12:42.904Z,100059.88
2023-05-10T18:14:17.205Z,100063.41
2023-05-10T18:15:57.713Z,100056.44
2023-05-10T18:17:30.124Z,100072.13
2023-05-10T18:19:02.483Z,100074.75
2023-05-10T18:20:35.103Z,100074.00
2023-05-10T18:22:10.453Z,100083.63
2023-05-10T18:23:43.067Z,100075.09
2023-05-10T18:25:15.443Z,100077.81
2023-05-10T18:26:48.091Z,100079.56
2023-05-10T18:28:20.280Z,100081.34
2023-05-10T18:29:52.452Z,100081.47
2023-05-10T18:31:24.731Z,100090.28
2023-05-10T18:32:57.916Z,100087.75
2023-05-10T18:34:30.126Z,100090.47
2023-05-10T18:36:02.867Z,100090.53
2023-05-10T18:37:35.652Z,100088.88
2023-05-10T18:39:08.828Z,100092.53
2023-05-10T18:40:43.598Z,100089.06
2023-05-10T18:42:15.980Z,100093.69
2023-05-10T18:43:48.180Z,100086.06
2023-05-10T18:45:20.841Z,100101.84
2023-05-10T18:46:54.710Z,100097.78
2023-05-10T18:48:26.903Z,100093.59
2023-05-10T18:49:58.980Z,100093.75
2023-05-10T18:51:31.961Z,100094.75
2023-05-10T18:53:04.158Z,100099.16
2023-05-10T18:54:36.308Z,100099.31
2023-05-10T18:56:08.645Z,100103.75
2023-05-10T18:57:43.487Z,100098.72
2023-05-10T18:59:15.989Z,100107.56
2023-05-10T19:00:48.836Z,100112.03